Time;durP1;ratioP1;P1;durP2;ratioP2;P2;SDS_P1;SDS_P2;PMS_P1;PMS_P2;Temp;Humidity;BMP_temperature;BMP_pressure;BME280_temperature;BME280_humidity;BME280_pressure;Samples;Min_cycle;Max_cycle;Signal;HPM_P1;HPM_P2
2021/01/10 00:00:09;;;;;;;40.90;23.17;;;-3.10;99.90;;;;;;5041471;28;20622;-69
2021/01/10 00:02:35;;;;;;;32.83;21.70;;;-3.20;99.90;;;;;;5048841;28;20502;-68
2021/01/10 00:05:02;;;;;;;39.90;21.20;;;-3.20;99.90;;;;;;5039182;28;20448;-68
2021/01/10 00:07:29;;;;;;;35.13;22.17;;;-3.00;99.90;;;;;;5047883;28;20603;-68
2021/01/10 00:09:55;;;;;;;35.73;21.90;;;-3.10;99.90;;;;;;5047249;28;20474;-68
2021/01/10 00:12:23;;;;;;;35.27;21.77;;;-3.10;99.90;;;;;;5049056;28;20883;-68
2021/01/10 00:14:50;;;;;;;34.80;23.50;;;-3.10;99.90;;;;;;5048412;28;20456;-68
2021/01/10 00:17:17;;;;;;;37.37;23.27;;;-3.10;99.90;;;;;;5048165;28;20475;-68
2021/01/10 00:19:44;;;;;;;32.97;21.67;;;-3.10;99.90;;;;;;5040977;28;20471;-68
2021/01/10 00:22:12;;;;;;;34.43;22.97;;;-3.20;99.90;;;;;;5025453;28;638697;-69
2021/01/10 00:24:39;;;;;;;36.43;22.03;;;-3.30;99.90;;;;;;5043527;28;20205;-68
2021/01/10 00:27:08;;;;;;;34.23;23.70;;;-3.30;99.90;;;;;;5042088;28;20444;-69
2021/01/10 00:29:35;;;;;;;37.50;23.00;;;-3.40;99.90;;;;;;5048802;28;20456;-68
2021/01/10 00:32:02;;;;;;;38.90;24.60;;;-3.40;99.90;;;;;;5049047;28;20957;-68
2021/01/10 00:34:29;;;;;;;36.07;23.20;;;-3.40;99.90;;;;;;5049004;28;20456;-69
2021/01/10 00:36:56;;;;;;;36.50;24.43;;;-3.40;99.90;;;;;;5048375;28;20583;-69
2021/01/10 00:39:22;;;;;;;36.70;23.70;;;-3.40;99.90;;;;;;5047901;28;21011;-69
2021/01/10 00:41:48;;;;;;;35.47;23.30;;;-3.50;99.90;;;;;;5047992;28;20497;-69
2021/01/10 00:44:15;;;;;;;49.00;25.00;;;-3.50;99.90;;;;;;5048931;28;20448;-69
2021/01/10 00:46:41;;;;;;;37.17;24.60;;;-3.50;99.90;;;;;;5048526;28;21050;-68
2021/01/10 00:49:07;;;;;;;36.93;22.93;;;-3.50;99.90;;;;;;5048063;28;21019;-69
2021/01/10 00:51:35;;;;;;;39.30;24.30;;;-3.60;99.90;;;;;;5048534;28;20444;-69
2021/01/10 00:54:01;;;;;;;39.43;24.47;;;-3.60;99.90;;;;;;5048713;28;20474;-68
2021/01/10 00:56:28;;;;;;;42.83;26.27;;;-3.60;99.90;;;;;;5048530;28;20566;-68
2021/01/10 00:58:54;;;;;;;42.00;24.47;;;-3.50;99.90;;;;;;5048540;28;20483;-68
2021/01/10 01:01:21;;;;;;;34.33;21.70;;;-3.50;99.90;;;;;;5041478;28;20504;-68
2021/01/10 01:03:49;;;;;;;33.53;22.80;;;-3.50;99.90;;;;;;5048336;28;20567;-68
2021/01/10 01:06:15;;;;;;;32.67;23.37;;;-3.40;99.90;;;;;;5048026;28;20486;-68
2021/01/10 01:08:43;;;;;;;34.90;22.50;;;-3.40;99.90;;;;;;5048579;28;20538;-68
2021/01/10 01:11:09;;;;;;;37.70;23.30;;;-3.40;99.90;;;;;;5048085;28;20480;-68
2021/01/10 01:13:36;;;;;;;36.53;24.20;;;-3.40;99.90;;;;;;5048738;28;20531;-69
2021/01/10 01:16:06;;;;;;;32.03;22.03;;;-3.30;99.90;;;;;;5048009;28;22438;-68
2021/01/10 01:18:33;;;;;;;27.90;20.13;;;-3.30;99.90;;;;;;5048591;28;21047;-69
2021/01/10 01:20:59;;;;;;;34.70;21.60;;;-3.30;99.90;;;;;;5046881;28;21377;-68
2021/01/10 01:23:26;;;;;;;36.70;22.53;;;-3.20;99.90;;;;;;5041933;28;20559;-68
2021/01/10 01:25:53;;;;;;;31.10;23.10;;;-3.20;99.90;;;;;;5047484;28;20520;-68
2021/01/10 01:28:20;;;;;;;35.23;21.60;;;-3.20;99.90;;;;;;5048428;28;20837;-68
2021/01/10 01:30:47;;;;;;;36.00;21.50;;;-3.30;99.90;;;;;;5047436;28;20812;-68
2021/01/10 01:33:13;;;;;;;36.60;23.73;;;-3.30;99.90;;;;;;5048018;28;21028;-69
2021/01/10 01:35:40;;;;;;;34.87;22.20;;;-3.30;99.90;;;;;;5047542;28;20527;-68
2021/01/10 01:38:06;;;;;;;35.90;21.57;;;-3.30;99.90;;;;;;5046303;28;20957;-69
2021/01/10 01:40:33;;;;;;;33.10;21.70;;;-3.30;99.90;;;;;;5047244;28;21104;-69
2021/01/10 01:43:00;;;;;;;29.47;19.93;;;-3.30;99.90;;;;;;5048237;28;20487;-68
2021/01/10 01:45:26;;;;;;;29.00;20.00;;;-3.30;99.90;;;;;;5047776;28;20476;-68
2021/01/10 01:47:54;;;;;;;31.57;22.03;;;-3.30;99.90;;;;;;5041139;28;20503;-67
2021/01/10 01:50:21;;;;;;;33.07;21.30;;;-3.30;99.90;;;;;;5047336;28;20476;-68
2021/01/10 01:52:47;;;;;;;32.40;20.70;;;-3.30;99.90;;;;;;5047707;28;20551;-68
2021/01/10 01:55:14;;;;;;;33.27;20.60;;;-3.30;99.90;;;;;;5047742;28;20440;-68
2021/01/10 01:57:40;;;;;;;33.47;21.47;;;-3.30;99.90;;;;;;5047275;28;20578;-68
2021/01/10 02:00:09;;;;;;;34.50;21.33;;;-3.30;99.90;;;;;;5046709;28;20475;-68
2021/01/10 02:02:35;;;;;;;31.30;21.40;;;-3.40;99.90;;;;;;5047548;28;20452;-68
2021/01/10 02:05:07;;;;;;;29.20;20.53;;;-3.30;99.90;;;;;;5047329;28;20471;-68
2021/01/10 02:07:40;;;;;;;31.07;21.57;;;-3.30;99.90;;;;;;5047799;28;20951;-68
2021/01/10 02:10:08;;;;;;;31.80;20.80;;;-3.30;99.90;;;;;;5047650;28;20479;-69
2021/01/10 02:12:38;;;;;;;32.37;21.83;;;-3.40;99.90;;;;;;5048982;28;20480;-69
2021/01/10 02:15:13;;;;;;;30.13;20.30;;;-3.50;99.90;;;;;;5049094;28;21172;-69
2021/01/10 02:17:42;;;;;;;29.60;19.13;;;-3.60;99.90;;;;;;5048865;28;20994;-69
2021/01/10 02:20:12;;;;;;;31.37;19.70;;;-3.70;99.90;;;;;;5048349;28;20467;-69
2021/01/10 02:22:44;;;;;;;28.50;19.83;;;-3.60;99.90;;;;;;5049455;28;20533;-69
2021/01/10 02:25:13;;;;;;;31.10;19.93;;;-3.60;99.90;;;;;;5049074;28;20447;-69
2021/01/10 02:27:40;;;;;;;33.03;21.50;;;-3.50;99.90;;;;;;5049215;28;20801;-68
2021/01/10 02:30:09;;;;;;;31.90;18.53;;;-3.50;99.90;;;;;;5048574;28;20555;-68
2021/01/10 02:32:37;;;;;;;27.97;18.93;;;-3.50;99.90;;;;;;5049065;28;20967;-69
2021/01/10 02:35:05;;;;;;;32.80;20.63;;;-3.60;99.90;;;;;;5049242;28;20458;-69
2021/01/10 02:37:46;;;;;;;29.63;20.07;;;-3.70;99.90;;;;;;5048709;28;20479;-69
2021/01/10 02:40:19;;;;;;;27.23;18.90;;;-3.70;99.90;;;;;;5048584;28;20475;-69
2021/01/10 02:42:48;;;;;;;28.00;18.20;;;-3.80;99.90;;;;;;5048981;28;20444;-69
2021/01/10 02:45:19;;;;;;;29.67;20.53;;;-3.90;99.90;;;;;;5048798;28;20500;-69
2021/01/10 02:47:46;;;;;;;26.30;17.77;;;-3.90;99.90;;;;;;5048778;28;20444;-69
2021/01/10 02:50:17;;;;;;;23.70;17.90;;;-4.00;99.90;;;;;;5048255;28;20959;-69
2021/01/10 02:52:45;;;;;;;29.20;18.70;;;-4.00;99.90;;;;;;5048977;28;21024;-69
2021/01/10 02:55:13;;;;;;;32.90;19.10;;;-4.00;99.90;;;;;;5048855;28;20475;-69
2021/01/10 02:57:39;;;;;;;34.77;21.00;;;-4.00;99.90;;;;;;5048890;28;20794;-69
2021/01/10 03:00:08;;;;;;;29.30;19.17;;;-4.00;99.90;;;;;;5047960;28;20468;-69
2021/01/10 03:02:36;;;;;;;27.93;19.67;;;-4.00;99.90;;;;;;5048664;28;20454;-69
2021/01/10 03:05:04;;;;;;;34.00;20.70;;;-4.00;99.90;;;;;;5049643;28;20440;-69
2021/01/10 03:07:32;;;;;;;29.10;19.20;;;-4.00;99.90;;;;;;5052305;28;20444;-69
2021/01/10 03:09:58;;;;;;;27.80;19.70;;;-3.90;99.90;;;;;;5051547;28;20526;-70
2021/01/10 03:12:26;;;;;;;27.50;18.93;;;-4.00;99.90;;;;;;5052370;28;20442;-70
2021/01/10 03:14:54;;;;;;;30.97;20.57;;;-4.00;99.90;;;;;;5052154;28;20503;-69
2021/01/10 03:17:31;;;;;;;28.30;17.70;;;-4.00;99.90;;;;;;5051674;28;20478;-70
2021/01/10 03:19:58;;;;;;;29.97;19.40;;;-4.00;99.90;;;;;;5051844;28;20463;-69
2021/01/10 03:22:24;;;;;;;28.57;18.33;;;-4.00;99.90;;;;;;5052318;28;20480;-70
2021/01/10 03:24:50;;;;;;;30.17;17.60;;;-4.00;99.90;;;;;;5052051;28;20530;-69
2021/01/10 03:27:17;;;;;;;30.47;19.37;;;-4.10;99.90;;;;;;5052350;28;20935;-69
2021/01/10 03:29:44;;;;;;;28.23;19.23;;;-4.10;99.90;;;;;;5051340;28;20472;-70
2021/01/10 03:32:10;;;;;;;33.40;19.10;;;-4.20;99.90;;;;;;5052246;28;20530;-70
2021/01/10 03:34:37;;;;;;;35.37;17.93;;;-4.10;99.90;;;;;;5052433;28;20535;-70
2021/01/10 03:37:04;;;;;;;28.60;18.80;;;-4.10;99.90;;;;;;5051979;28;20480;-70
2021/01/10 03:39:31;;;;;;;33.43;20.07;;;-4.30;99.90;;;;;;5051531;28;20467;-70
2021/01/10 03:41:57;;;;;;;31.83;19.87;;;-4.30;99.90;;;;;;5052666;28;20444;-70
2021/01/10 03:44:24;;;;;;;32.87;19.60;;;-4.20;99.90;;;;;;5051815;28;20440;-70
2021/01/10 03:46:51;;;;;;;27.73;18.90;;;-4.20;99.90;;;;;;5052231;28;20443;-70
2021/01/10 03:49:18;;;;;;;34.03;18.90;;;-4.20;99.90;;;;;;5050840;28;20486;-70
2021/01/10 03:51:45;;;;;;;30.80;19.03;;;-4.20;99.90;;;;;;5051724;28;21135;-70
2021/01/10 03:54:11;;;;;;;25.87;18.93;;;-4.20;99.90;;;;;;5051448;28;21011;-70
2021/01/10 03:56:37;;;;;;;29.37;18.20;;;-4.20;99.90;;;;;;5051426;28;21051;-70
2021/01/10 03:59:04;;;;;;;35.30;20.10;;;-4.10;99.90;;;;;;5050948;28;20825;-70
2021/01/10 04:01:30;;;;;;;28.77;19.20;;;-4.10;99.90;;;;;;5051447;28;20543;-69
2021/01/10 04:03:57;;;;;;;29.97;20.73;;;-4.10;99.90;;;;;;5051670;28;20442;-70
2021/01/10 04:06:24;;;;;;;29.17;18.70;;;-4.10;99.90;;;;;;5051504;28;20886;-73
2021/01/10 04:08:51;;;;;;;24.43;15.73;;;-4.00;99.90;;;;;;5051150;28;20562;-70
2021/01/10 04:11:17;;;;;;;26.10;17.53;;;-4.00;99.90;;;;;;5050625;28;20495;-70
2021/01/10 04:13:43;;;;;;;25.17;16.83;;;-4.00;99.90;;;;;;5051370;28;20534;-70
2021/01/10 04:16:12;;;;;;;26.60;16.10;;;-4.00;99.90;;;;;;5051406;28;20524;-70
2021/01/10 04:18:38;;;;;;;25.40;17.23;;;-4.00;99.90;;;;;;5051844;28;20452;-70
2021/01/10 04:21:06;;;;;;;23.30;15.67;;;-3.90;99.90;;;;;;5050828;28;20464;-70
2021/01/10 04:23:32;;;;;;;29.00;17.53;;;-3.80;99.90;;;;;;5050842;28;20451;-70
2021/01/10 04:25:59;;;;;;;33.30;18.40;;;-3.70;99.90;;;;;;5050914;28;20664;-70
2021/01/10 04:28:25;;;;;;;26.17;18.07;;;-3.50;99.90;;;;;;5051032;28;20519;-69
2021/01/10 04:30:51;;;;;;;27.50;18.03;;;-3.40;99.90;;;;;;5050092;28;20464;-69
2021/01/10 04:33:18;;;;;;;28.57;17.80;;;-3.30;99.90;;;;;;5050806;28;20534;-69
2021/01/10 04:35:44;;;;;;;26.80;19.00;;;-3.30;99.90;;;;;;5050674;28;20551;-69
2021/01/10 04:38:12;;;;;;;28.33;17.00;;;-3.10;99.90;;;;;;5050573;28;21087;-69
2021/01/10 04:40:38;;;;;;;23.27;16.50;;;-3.10;99.90;;;;;;5049640;28;20559;-69
2021/01/10 04:43:04;;;;;;;25.97;16.83;;;-2.90;99.90;;;;;;5050648;28;20436;-69
2021/01/10 04:45:31;;;;;;;28.00;19.57;;;-2.90;99.90;;;;;;5050574;28;20883;-69
2021/01/10 04:47:58;;;;;;;33.00;21.00;;;-2.90;99.90;;;;;;5050329;28;20439;-69
2021/01/10 04:50:26;;;;;;;28.80;16.40;;;-2.80;99.90;;;;;;5049623;28;20594;-69
2021/01/10 04:52:54;;;;;;;26.30;19.20;;;-2.80;99.90;;;;;;5050346;28;20440;-69
2021/01/10 04:55:24;;;;;;;33.40;20.00;;;-2.60;99.90;;;;;;5050146;28;20842;-69
2021/01/10 04:57:50;;;;;;;23.87;18.07;;;-2.60;99.90;;;;;;5050332;28;20578;-69
2021/01/10 05:00:19;;;;;;;26.70;19.00;;;-2.50;99.90;;;;;;5049730;28;20537;-70
2021/01/10 05:02:47;;;;;;;30.57;18.00;;;-2.40;99.90;;;;;;5050022;28;20444;-69
2021/01/10 05:05:14;;;;;;;26.47;17.90;;;-2.30;99.90;;;;;;5050647;28;20534;-69
2021/01/10 05:07:42;;;;;;;26.97;18.30;;;-2.30;99.90;;;;;;5050333;28;20458;-69
2021/01/10 05:10:10;;;;;;;26.40;18.73;;;-2.30;99.90;;;;;;5050054;28;20471;-69
2021/01/10 05:12:37;;;;;;;28.30;19.80;;;-2.40;99.90;;;;;;5050178;28;20478;-69
2021/01/10 05:15:04;;;;;;;28.87;19.97;;;-2.50;99.90;;;;;;5050412;28;20531;-69
2021/01/10 05:17:32;;;;;;;25.93;18.60;;;-2.50;99.90;;;;;;5050940;28;21029;-69
2021/01/10 05:19:59;;;;;;;30.17;19.73;;;-2.50;99.90;;;;;;5050497;28;20559;-69
2021/01/10 05:22:25;;;;;;;25.57;17.30;;;-2.50;99.90;;;;;;5050988;28;21086;-69
2021/01/10 05:24:52;;;;;;;29.70;17.50;;;-2.60;99.90;;;;;;5050788;28;20870;-70
2021/01/10 05:27:18;;;;;;;28.67;18.73;;;-2.60;99.90;;;;;;5049876;28;20517;-69
2021/01/10 05:29:46;;;;;;;26.23;18.17;;;-2.60;99.90;;;;;;5051112;28;20495;-69
2021/01/10 05:32:13;;;;;;;26.13;18.47;;;-2.50;99.90;;;;;;5051579;28;20701;-70
2021/01/10 05:34:39;;;;;;;24.77;17.63;;;-2.40;99.90;;;;;;5052349;28;20543;-69
2021/01/10 05:37:13;;;;;;;26.67;18.30;;;-2.40;99.90;;;;;;5051339;28;20985;-70
2021/01/10 05:39:45;;;;;;;26.90;17.77;;;-2.50;99.90;;;;;;5048605;28;20479;-70
2021/01/10 05:42:13;;;;;;;27.57;17.83;;;-2.50;99.90;;;;;;5049598;28;20447;-69
2021/01/10 05:44:51;;;;;;;23.27;16.50;;;-2.30;99.90;;;;;;5049763;28;20508;-68
2021/01/10 05:47:19;;;;;;;29.83;19.80;;;-2.20;99.90;;;;;;5049358;28;20482;-69
2021/01/10 05:49:47;;;;;;;23.60;16.00;;;-2.20;99.90;;;;;;5048882;28;20464;-69
2021/01/10 05:52:14;;;;;;;25.60;18.23;;;-2.10;99.90;;;;;;5049603;28;20573;-69
2021/01/10 05:54:42;;;;;;;23.13;16.10;;;-2.20;99.90;;;;;;5049492;28;20530;-70
2021/01/10 05:57:10;;;;;;;25.57;16.50;;;-2.30;99.90;;;;;;5049324;28;20538;-70
2021/01/10 05:59:38;;;;;;;23.13;16.30;;;-2.30;99.90;;;;;;5048441;28;20597;-68
2021/01/10 06:02:06;;;;;;;22.50;18.10;;;-2.30;99.90;;;;;;5049590;28;20527;-68
2021/01/10 06:04:34;;;;;;;27.50;15.50;;;-2.40;99.90;;;;;;5049814;28;20530;-68
2021/01/10 06:07:00;;;;;;;24.50;15.70;;;-2.40;99.90;;;;;;5049814;28;20440;-68
2021/01/10 06:09:28;;;;;;;21.37;15.03;;;-2.30;99.90;;;;;;5048734;28;20562;-69
2021/01/10 06:11:54;;;;;;;20.00;14.47;;;-2.30;99.90;;;;;;5049601;28;20455;-69
2021/01/10 06:14:23;;;;;;;24.70;17.60;;;-2.30;99.90;;;;;;5049458;28;20448;-69
2021/01/10 06:16:56;;;;;;;21.73;16.40;;;-2.20;99.90;;;;;;5049008;28;20475;-69
2021/01/10 06:19:28;;;;;;;24.53;16.50;;;-2.20;99.90;;;;;;5048447;28;20472;-69
2021/01/10 06:21:59;;;;;;;21.60;15.57;;;-2.10;99.90;;;;;;5049540;28;20478;-70
2021/01/10 06:24:32;;;;;;;24.20;14.80;;;-2.20;99.90;;;;;;5049141;28;20454;-70
2021/01/10 06:27:07;;;;;;;24.50;16.57;;;-2.20;99.90;;;;;;5049176;28;20452;-70
2021/01/10 06:29:39;;;;;;;23.30;15.60;;;-2.20;99.90;;;;;;5048665;28;20465;-70
2021/01/10 06:32:10;;;;;;;24.37;14.53;;;-2.20;99.90;;;;;;5049168;28;20518;-70
2021/01/10 06:34:41;;;;;;;25.50;15.90;;;-2.20;99.90;;;;;;5049137;28;20459;-70
2021/01/10 06:37:08;;;;;;;23.53;16.50;;;-2.10;99.90;;;;;;5048921;28;20533;-70
2021/01/10 06:39:39;;;;;;;21.27;15.20;;;-2.10;99.90;;;;;;5048546;28;21045;-70
2021/01/10 06:42:08;;;;;;;27.70;16.43;;;-2.10;99.90;;;;;;5053155;28;20505;-70
2021/01/10 06:44:37;;;;;;;24.40;15.40;;;-2.00;99.90;;;;;;5052836;28;20530;-69
2021/01/10 06:47:05;;;;;;;23.60;15.70;;;-2.00;99.90;;;;;;5052771;28;20454;-69
2021/01/10 06:49:31;;;;;;;23.57;15.40;;;-1.90;99.90;;;;;;5051995;28;20551;-69
2021/01/10 06:52:02;;;;;;;23.37;16.20;;;-1.90;99.90;;;;;;5052472;28;20456;-69
2021/01/10 06:54:28;;;;;;;23.40;15.73;;;-1.80;99.90;;;;;;5052724;28;20451;-70
2021/01/10 06:56:56;;;;;;;25.47;16.90;;;-1.90;99.90;;;;;;5052382;28;20991;-69
2021/01/10 06:59:23;;;;;;;25.90;16.07;;;-1.90;99.90;;;;;;5051910;28;20440;-69
2021/01/10 07:02:02;;;;;;;23.60;15.67;;;-1.90;99.90;;;;;;5052067;28;20542;-69
2021/01/10 07:05:03;;;;;;;27.53;17.17;;;-1.80;99.90;;;;;;5051983;28;20513;-69
2021/01/10 07:07:41;;;;;;;21.77;16.27;;;-1.80;99.90;;;;;;5052214;28;20469;-69
2021/01/10 07:10:13;;;;;;;23.70;15.27;;;-1.80;99.90;;;;;;5051780;28;20471;-69
2021/01/10 07:12:40;;;;;;;22.80;15.77;;;-1.90;99.90;;;;;;5051949;28;20479;-69
2021/01/10 07:15:28;;;;;;;22.57;16.53;;;-2.00;99.90;;;;;;5052529;28;20447;-69
2021/01/10 07:18:10;;;;;;;25.57;17.07;;;-2.00;99.90;;;;;;5047181;28;20510;-70
2021/01/10 07:20:44;;;;;;;20.50;16.10;;;-2.00;99.90;;;;;;5051559;28;20472;-69
2021/01/10 07:23:30;;;;;;;26.20;16.37;;;-2.10;99.90;;;;;;5051871;28;20463;-69
2021/01/10 07:25:58;;;;;;;26.50;17.80;;;-2.10;99.90;;;;;;5051675;28;20517;-68
2021/01/10 07:28:41;;;;;;;27.97;17.60;;;-2.00;99.90;;;;;;5052034;28;20518;-69
2021/01/10 07:31:10;;;;;;;22.97;15.50;;;-1.90;99.90;;;;;;5051281;28;20463;-69
2021/01/10 07:33:36;;;;;;;22.13;17.30;;;-1.90;99.90;;;;;;5051527;28;20530;-68
2021/01/10 07:36:03;;;;;;;21.70;15.40;;;-1.80;99.90;;;;;;5051428;28;20452;-69
2021/01/10 07:38:35;;;;;;;24.57;16.77;;;-1.80;99.90;;;;;;5051512;28;20533;-68
2021/01/10 07:41:21;;;;;;;24.63;16.53;;;-1.70;99.90;;;;;;5050844;28;20562;-69
2021/01/10 07:43:49;;;;;;;23.47;16.20;;;-1.70;99.90;;;;;;5051288;28;20450;-70
2021/01/10 07:46:52;;;;;;;25.33;16.43;;;-1.70;99.90;;;;;;5051127;28;20448;-69
2021/01/10 07:49:19;;;;;;;25.40;15.03;;;-1.70;99.90;;;;;;5050555;28;20447;-69
2021/01/10 07:51:46;;;;;;;24.20;15.30;;;-1.80;99.90;;;;;;5051217;28;20527;-69
2021/01/10 07:54:12;;;;;;;21.53;14.90;;;-1.80;99.90;;;;;;5050784;28;21100;-69
2021/01/10 07:56:39;;;;;;;28.87;17.37;;;-1.70;99.90;;;;;;5050947;28;20444;-69
2021/01/10 07:59:15;;;;;;;23.43;16.30;;;-1.70;99.90;;;;;;5050905;28;20452;-69
2021/01/10 08:01:48;;;;;;;24.23;16.60;;;-1.70;99.90;;;;;;5051280;28;20455;-69
2021/01/10 08:04:32;;;;;;;26.48;18.30;;;-1.60;99.90;;;;;;5052317;28;20854;-69
2021/01/10 08:06:59;;;;;;;23.70;16.90;;;-1.70;99.90;;;;;;5052139;28;20201;-69
2021/01/10 08:09:31;;;;;;;26.47;17.50;;;-1.60;99.90;;;;;;5050058;28;20455;-69
2021/01/10 08:11:58;;;;;;;22.97;14.97;;;-1.60;99.90;;;;;;5050498;28;21085;-69
2021/01/10 08:14:24;;;;;;;22.10;15.43;;;-1.60;99.90;;;;;;5050832;28;20489;-69
2021/01/10 08:16:50;;;;;;;23.30;16.40;;;-1.50;99.90;;;;;;5050448;28;20858;-69
2021/01/10 08:19:18;;;;;;;19.50;15.00;;;-1.40;99.90;;;;;;5049582;28;20543;-69
2021/01/10 08:21:44;;;;;;;22.97;15.80;;;-1.30;99.90;;;;;;5050559;28;20573;-69
2021/01/10 08:24:14;;;;;;;19.40;14.40;;;-1.20;99.90;;;;;;5050776;28;20452;-69
2021/01/10 08:26:43;;;;;;;24.33;17.27;;;-1.10;99.90;;;;;;5050262;28;20452;-71
2021/01/10 08:29:10;;;;;;;20.93;15.97;;;-1.10;99.90;;;;;;5049739;28;20486;-69
2021/01/10 08:31:37;;;;;;;22.07;15.37;;;-1.10;99.90;;;;;;5050708;28;20940;-70
2021/01/10 08:34:05;;;;;;;21.93;14.73;;;-1.10;99.90;;;;;;5049932;28;20518;-69
2021/01/10 08:36:33;;;;;;;24.27;16.60;;;-1.00;99.90;;;;;;5050074;28;21004;-70
2021/01/10 08:39:01;;;;;;;21.87;14.60;;;-0.90;99.90;;;;;;5049888;28;20531;-70
2021/01/10 08:41:30;;;;;;;21.93;15.57;;;-1.00;99.90;;;;;;5049634;28;20904;-69
2021/01/10 08:43:58;;;;;;;21.07;14.43;;;-0.90;99.90;;;;;;5049999;28;20456;-69
2021/01/10 08:46:25;;;;;;;19.90;15.27;;;-0.90;99.90;;;;;;5049839;28;20544;-70
2021/01/10 08:48:52;;;;;;;21.90;14.80;;;-0.80;99.90;;;;;;5049815;28;20534;-69
2021/01/10 08:51:29;;;;;;;22.00;15.23;;;-0.80;99.90;;;;;;5049343;28;20984;-70
2021/01/10 08:53:56;;;;;;;23.97;15.00;;;-0.70;99.90;;;;;;5050075;28;20479;-71
2021/01/10 08:56:22;;;;;;;22.50;15.30;;;-0.60;99.90;;;;;;5049297;28;20456;-72
2021/01/10 08:58:54;;;;;;;19.67;14.90;;;-0.40;99.90;;;;;;5049202;28;20486;-71
2021/01/10 09:01:21;;;;;;;26.47;16.10;;;-0.40;99.90;;;;;;5048870;28;20513;-70
2021/01/10 09:04:00;;;;;;;27.50;15.93;;;-0.50;99.90;;;;;;5048830;28;20662;-71
2021/01/10 09:06:35;;;;;;;24.00;16.33;;;-0.50;99.90;;;;;;5050250;28;20455;-69
2021/01/10 09:09:05;;;;;;;21.80;15.77;;;-0.50;99.90;;;;;;5049331;28;20888;-67
2021/01/10 09:11:36;;;;;;;20.60;14.80;;;-0.50;99.90;;;;;;5049058;28;20893;-68
2021/01/10 09:14:04;;;;;;;23.73;15.23;;;-0.50;99.90;;;;;;5049393;28;20444;-69
2021/01/10 09:16:32;;;;;;;21.77;15.50;;;-0.40;99.90;;;;;;5049228;28;20452;-67
2021/01/10 09:18:59;;;;;;;23.50;15.27;;;-0.30;99.90;;;;;;5048533;28;20437;-69
2021/01/10 09:21:27;;;;;;;23.23;14.73;;;-0.20;99.90;;;;;;5048231;28;21039;-69
2021/01/10 09:23:55;;;;;;;21.83;14.57;;;-0.20;99.90;;;;;;5049101;28;20440;-68
2021/01/10 09:26:29;;;;;;;21.53;15.27;;;-0.30;99.90;;;;;;5049208;28;20534;-68
2021/01/10 09:28:56;;;;;;;22.93;15.83;;;-0.40;99.90;;;;;;5048563;28;21144;-67
2021/01/10 09:31:38;;;;;;;22.93;15.53;;;-0.40;99.90;;;;;;5048274;28;20892;-70
2021/01/10 09:34:05;;;;;;;19.40;14.77;;;-0.30;99.90;;;;;;5048523;28;20436;-70
2021/01/10 09:36:32;;;;;;;21.50;16.73;;;-0.20;99.90;;;;;;5048471;28;20443;-68
2021/01/10 09:38:59;;;;;;;20.27;14.30;;;-0.10;99.90;;;;;;5048781;28;20447;-69
2021/01/10 09:41:25;;;;;;;18.13;13.83;;;-0.20;99.90;;;;;;5048383;28;20464;-68
2021/01/10 09:43:54;;;;;;;21.27;15.47;;;-0.30;99.90;;;;;;5049155;28;20861;-69
2021/01/10 09:46:26;;;;;;;19.47;15.10;;;-0.40;99.90;;;;;;5048745;28;20454;-68
2021/01/10 09:48:53;;;;;;;19.77;15.37;;;-0.50;99.90;;;;;;5047395;28;21298;-68
2021/01/10 09:51:20;;;;;;;19.20;13.83;;;-0.50;99.90;;;;;;5048166;28;20885;-68
2021/01/10 09:53:47;;;;;;;20.40;14.10;;;-0.50;99.90;;;;;;5048732;28;20440;-68
2021/01/10 09:56:44;;;;;;;23.80;15.60;;;-0.40;99.90;;;;;;5048333;28;20464;-68
2021/01/10 09:59:40;;;;;;;19.43;13.77;;;-0.40;99.90;;;;;;5040943;28;20540;-69
2021/01/10 10:02:13;;;;;;;17.97;14.70;;;-0.30;99.90;;;;;;5048531;28;21016;-69
2021/01/10 10:04:39;;;;;;;21.43;16.77;;;-0.30;99.90;;;;;;5048565;28;20531;-69
2021/01/10 10:07:06;;;;;;;22.03;14.87;;;-0.20;99.90;;;;;;5048476;28;20964;-69
2021/01/10 10:09:46;;;;;;;19.80;14.50;;;0.00;99.90;;;;;;5048309;28;20460;-69
2021/01/10 10:12:13;;;;;;;20.33;14.23;;;0.00;99.90;;;;;;5041042;28;20467;-68
2021/01/10 10:14:50;;;;;;;18.67;15.40;;;0.10;99.90;;;;;;5049661;28;20519;-68
2021/01/10 10:17:16;;;;;;;21.47;15.43;;;0.30;99.90;;;;;;5052687;28;20513;-68
2021/01/10 10:19:43;;;;;;;21.43;15.87;;;0.40;99.90;;;;;;5051942;28;20474;-68
2021/01/10 10:22:20;;;;;;;22.50;16.70;;;0.30;99.90;;;;;;5052615;28;20532;-69
2021/01/10 10:24:46;;;;;;;20.70;13.93;;;0.40;99.90;;;;;;5053215;28;20462;-69
2021/01/10 10:27:12;;;;;;;17.20;13.40;;;0.60;99.90;;;;;;5053188;28;20447;-69
2021/01/10 10:29:40;;;;;;;17.73;12.77;;;0.90;99.90;;;;;;5052197;28;20562;-68
2021/01/10 10:32:07;;;;;;;16.23;13.70;;;1.50;99.90;;;;;;5052478;28;20452;-67
2021/01/10 10:34:33;;;;;;;13.00;9.87;;;2.10;99.90;;;;;;5052456;28;20455;-67
2021/01/10 10:37:00;;;;;;;11.90;9.73;;;2.60;99.90;;;;;;5051954;28;20534;-68
2021/01/10 10:39:26;;;;;;;12.90;10.10;;;3.00;99.90;;;;;;5051361;28;20447;-68
2021/01/10 10:41:53;;;;;;;15.40;9.67;;;3.20;99.90;;;;;;5052393;28;20962;-68
2021/01/10 10:44:19;;;;;;;12.40;10.47;;;3.50;99.90;;;;;;5052024;28;20966;-68
2021/01/10 10:46:46;;;;;;;11.73;10.03;;;3.60;99.90;;;;;;5052108;28;20535;-68
2021/01/10 10:49:13;;;;;;;12.30;10.67;;;4.00;99.90;;;;;;5051066;28;20944;-70
2021/01/10 10:51:39;;;;;;;13.40;10.23;;;3.90;99.90;;;;;;5051427;28;20899;-68
2021/01/10 10:54:08;;;;;;;11.90;10.10;;;4.00;99.90;;;;;;5052068;28;20589;-68
2021/01/10 10:56:35;;;;;;;11.30;9.40;;;4.20;99.90;;;;;;5051505;28;20875;-69
2021/01/10 10:59:02;;;;;;;11.73;9.70;;;4.40;99.90;;;;;;5051542;28;20509;-69
2021/01/10 11:01:37;;;;;;;14.17;10.63;;;4.10;99.90;;;;;;5051483;28;20480;-69
2021/01/10 11:04:05;;;;;;;13.23;11.57;;;3.20;99.90;;;;;;5050832;28;20438;-69
2021/01/10 11:06:32;;;;;;;10.83;9.50;;;2.70;99.90;;;;;;5051394;28;20205;-70
2021/01/10 11:08:59;;;;;;;13.93;10.00;;;2.40;99.90;;;;;;5045813;28;20454;-70
2021/01/10 11:11:34;;;;;;;14.37;11.17;;;2.20;99.90;;;;;;5045374;28;20476;-70
2021/01/10 11:14:01;;;;;;;13.90;10.33;;;2.10;99.90;;;;;;5048733;28;20459;-70
2021/01/10 11:16:31;;;;;;;13.17;9.90;;;2.00;99.90;;;;;;5051205;28;20468;-71
2021/01/10 11:18:58;;;;;;;16.70;9.93;;;1.90;99.90;;;;;;5051027;28;20532;-70
2021/01/10 11:21:29;;;;;;;13.80;10.20;;;2.00;99.90;;;;;;5050759;28;20625;-70
2021/01/10 11:23:55;;;;;;;16.57;10.90;;;1.90;99.90;;;;;;5051268;28;20440;-70
2021/01/10 11:26:21;;;;;;;15.30;10.87;;;1.80;99.90;;;;;;5050741;28;20520;-70
2021/01/10 11:28:48;;;;;;;12.30;9.70;;;1.80;99.90;;;;;;5051165;28;20448;-70
2021/01/10 11:31:15;;;;;;;12.17;9.60;;;1.80;99.90;;;;;;5050815;28;20467;-70
2021/01/10 11:33:42;;;;;;;13.63;10.67;;;1.80;99.90;;;;;;5051417;28;20535;-70
2021/01/10 11:36:09;;;;;;;12.67;9.70;;;1.90;99.90;;;;;;5051740;28;20447;-70
2021/01/10 11:38:36;;;;;;;13.17;10.07;;;1.90;99.90;;;;;;5051325;28;20583;-70
2021/01/10 11:41:07;;;;;;;11.77;8.83;;;1.90;99.90;;;;;;5049256;28;20548;-70
2021/01/10 11:43:34;;;;;;;13.10;10.00;;;1.90;99.90;;;;;;5050882;28;20539;-70
2021/01/10 11:46:01;;;;;;;11.90;9.37;;;1.90;99.90;;;;;;5031390;28;20576;-69
2021/01/10 11:48:27;;;;;;;13.00;9.40;;;1.90;99.90;;;;;;5031161;28;20441;-69
2021/01/10 11:50:53;;;;;;;13.30;8.77;;;1.90;99.90;;;;;;5032970;28;20495;-70
2021/01/10 11:53:20;;;;;;;13.73;10.47;;;1.90;99.90;;;;;;5051085;28;20527;-69
2021/01/10 11:55:47;;;;;;;12.10;9.77;;;1.90;99.90;;;;;;5050796;28;20459;-70
2021/01/10 11:58:13;;;;;;;12.03;8.30;;;2.00;99.90;;;;;;5050655;28;20486;-69
2021/01/10 12:00:40;;;;;;;14.10;9.00;;;2.00;99.90;;;;;;5050024;28;20464;-69
2021/01/10 12:03:06;;;;;;;14.70;9.70;;;2.00;99.90;;;;;;5050873;28;20546;-70
2021/01/10 12:05:33;;;;;;;10.80;8.13;;;2.10;99.90;;;;;;5050534;28;21265;-70
2021/01/10 12:08:00;;;;;;;12.33;8.90;;;2.20;99.90;;;;;;5050537;28;20443;-70
2021/01/10 12:10:27;;;;;;;9.60;7.93;;;2.20;99.90;;;;;;5045073;28;20547;-70
2021/01/10 12:12:54;;;;;;;9.37;7.83;;;2.10;99.90;;;;;;5050152;28;20447;-70
2021/01/10 12:15:22;;;;;;;9.23;7.23;;;2.20;99.90;;;;;;5050443;28;20534;-70
2021/01/10 12:17:49;;;;;;;9.33;6.90;;;2.10;99.90;;;;;;5051351;28;20570;-70
2021/01/10 12:20:15;;;;;;;9.73;7.30;;;2.10;99.90;;;;;;5050951;28;20464;-70
2021/01/10 12:22:42;;;;;;;11.67;8.83;;;2.10;99.90;;;;;;5051549;28;20448;-70
2021/01/10 12:25:09;;;;;;;8.23;7.30;;;2.00;99.90;;;;;;5050093;28;20547;-70
2021/01/10 12:27:36;;;;;;;11.30;7.97;;;2.00;99.90;;;;;;5051497;28;20520;-70
2021/01/10 12:30:04;;;;;;;10.27;8.03;;;2.00;99.90;;;;;;5049977;28;20475;-70
2021/01/10 12:32:35;;;;;;;11.17;8.83;;;2.00;99.90;;;;;;5051867;28;20543;-70
2021/01/10 12:35:02;;;;;;;11.60;7.83;;;2.00;99.90;;;;;;5051444;28;20530;-70
2021/01/10 12:37:28;;;;;;;11.40;8.50;;;2.00;99.90;;;;;;5049956;28;20545;-70